createdAt,value
2022-12-16T00:00:20.660Z,55.42
2022-12-16T00:05:42.861Z,58.65
2022-12-16T00:08:12.991Z,68.38
2022-12-16T00:10:54.933Z,67.97
2022-12-16T00:13:24.653Z,49.03
2022-12-16T00:15:52.950Z,57.90
2022-12-16T00:18:23.800Z,64.05
2022-12-16T00:20:54.824Z,58.67
2022-12-16T00:23:24.162Z,54.03
2022-12-16T00:25:53.058Z,72.13
2022-12-16T00:28:23.273Z,51.42
2022-12-16T00:30:52.532Z,72.53
2022-12-16T00:33:27.401Z,68.18
2022-12-16T00:35:59.313Z,64.70
2022-12-16T00:38:28.935Z,70.00
2022-12-16T00:43:25.744Z,63.28
2022-12-16T00:45:54.005Z,61.93
2022-12-16T00:48:24.178Z,67.80
2022-12-16T00:50:55.415Z,65.97
2022-12-16T00:53:25.598Z,50.58
2022-12-16T00:55:54.462Z,57.63
2022-12-16T00:58:23.434Z,53.80
2022-12-16T01:00:55.384Z,37.42
2022-12-16T01:03:25.959Z,45.28
2022-12-16T01:05:54.323Z,50.22
2022-12-16T01:08:22.948Z,54.80
2022-12-16T01:10:52.776Z,68.40
2022-12-16T01:13:22.777Z,57.40
2022-12-16T01:15:51.302Z,56.25
2022-12-16T01:18:20.904Z,51.30
2022-12-16T01:20:50.598Z,53.95
2022-12-16T01:23:19.167Z,46.45
2022-12-16T01:25:52.396Z,60.33
2022-12-16T01:28:20.986Z,52.70
2022-12-16T01:30:49.201Z,68.28
2022-12-16T01:33:18.255Z,51.55
2022-12-16T01:35:55.220Z,45.95
2022-12-16T01:38:26.200Z,66.15
2022-12-16T01:40:55.187Z,56.83
2022-12-16T01:43:28.172Z,65.00
2022-12-16T01:46:00.370Z,69.78
2022-12-16T01:48:39.605Z,73.40
2022-12-16T01:51:11.657Z,72.28
2022-12-16T01:53:44.735Z,77.28
2022-12-16T01:56:18.954Z,65.80
2022-12-16T01:58:48.438Z,66.10
2022-12-16T02:01:18.462Z,70.13
2022-12-16T02:03:49.112Z,71.45
2022-12-16T02:06:17.504Z,58.47
2022-12-16T02:08:50.368Z,63.58
2022-12-16T02:11:44.070Z,53.80
2022-12-16T02:14:28.707Z,70.10
2022-12-16T02:17:01.787Z,71.40
2022-12-16T02:20:05.862Z,62.95
2022-12-16T02:22:48.441Z,64.43
2022-12-16T02:25:47.410Z,70.30
2022-12-16T02:28:33.804Z,79.18
2022-12-16T02:31:14.616Z,72.55
2022-12-16T02:34:02.451Z,67.22
2022-12-16T02:36:44.145Z,71.70
2022-12-16T02:39:16.487Z,82.03
2022-12-16T02:41:51.773Z,66.28
2022-12-16T02:44:22.330Z,74.82
2022-12-16T02:46:56.739Z,67.00
2022-12-16T02:49:46.650Z,72.93
2022-12-16T02:52:16.623Z,71.85
2022-12-16T02:54:46.132Z,67.47
2022-12-16T02:57:29.519Z,73.70
2022-12-16T03:00:03.789Z,69.45
2022-12-16T03:02:42.699Z,64.60
2022-12-16T03:05:18.022Z,69.85
2022-12-16T03:07:48.672Z,69.85
2022-12-16T03:10:20.632Z,63.20
2022-12-16T03:12:49.238Z,62.30
2022-12-16T03:15:21.405Z,71.32
2022-12-16T03:17:53.954Z,64.07
2022-12-16T03:20:27.996Z,58.70
2022-12-16T03:23:00.939Z,73.35
2022-12-16T03:25:31.215Z,65.90
2022-12-16T03:28:05.218Z,60.42
2022-12-16T03:34:11.625Z,65.60
2022-12-16T03:36:42.709Z,64.40
2022-12-16T03:39:12.751Z,63.03
2022-12-16T03:41:42.847Z,58.72
2022-12-16T03:44:13.033Z,63.90
2022-12-16T03:46:41.595Z,57.88
2022-12-16T03:49:11.671Z,68.13
2022-12-16T03:51:39.954Z,64.43
2022-12-16T03:54:08.455Z,67.80
2022-12-16T03:56:37.263Z,69.18
2022-12-16T03:59:05.761Z,65.43
2022-12-16T04:01:34.207Z,71.63
2022-12-16T04:04:02.886Z,79.07
2022-12-16T04:06:32.657Z,68.28
2022-12-16T04:09:01.183Z,74.80
2022-12-16T04:11:46.773Z,71.82
2022-12-16T04:14:32.529Z,74.90
2022-12-16T04:17:18.562Z,71.25
2022-12-16T04:20:07.275Z,75.47
2022-12-16T04:22:58.743Z,84.60
2022-12-16T04:25:32.683Z,82.60
2022-12-16T04:28:01.454Z,73.43
2022-12-16T04:30:34.907Z,66.15
2022-12-16T04:33:23.570Z,79.35
2022-12-16T04:36:09.413Z,74.47
2022-12-16T04:38:57.922Z,80.45
2022-12-16T04:41:44.016Z,87.82
2022-12-16T04:44:29.794Z,80.25
2022-12-16T04:47:16.395Z,82.85
2022-12-16T04:50:02.168Z,89.50
2022-12-16T04:52:51.327Z,83.97
2022-12-16T04:55:38.653Z,76.72
2022-12-16T04:58:24.928Z,75.75
2022-12-16T05:01:10.863Z,74.63
2022-12-16T05:03:57.243Z,85.00
2022-12-16T05:06:42.763Z,87.60
2022-12-16T05:09:29.014Z,74.18
2022-12-16T05:12:16.249Z,75.45
2022-12-16T05:15:05.263Z,86.40
2022-12-16T05:17:50.757Z,73.18
2022-12-16T05:20:37.320Z,105.03
2022-12-16T05:23:22.866Z,94.57
2022-12-16T05:26:09.154Z,93.93
2022-12-16T05:28:56.407Z,94.30
2022-12-16T05:31:42.659Z,88.50
2022-12-16T05:34:30.552Z,110.20
2022-12-16T05:37:16.562Z,117.97
2022-12-16T05:40:07.683Z,99.03
2022-12-16T05:42:53.606Z,100.18
2022-12-16T05:45:40.539Z,105.30
2022-12-16T05:48:26.586Z,98.93
2022-12-16T05:51:12.219Z,109.45
2022-12-16T05:53:58.123Z,93.32
2022-12-16T05:56:43.870Z,82.63
2022-12-16T05:59:28.884Z,104.05
2022-12-16T06:02:16.373Z,96.97
2022-12-16T06:05:02.356Z,93.22
2022-12-16T06:07:47.472Z,99.65
2022-12-16T06:10:33.635Z,95.43
2022-12-16T06:13:19.191Z,93.35
2022-12-16T06:16:13.729Z,97.45
2022-12-16T06:19:00.933Z,75.82
2022-12-16T06:21:47.362Z,81.63
2022-12-16T06:24:33.090Z,80.63
2022-12-16T06:27:18.761Z,85.18
2022-12-16T06:30:05.040Z,76.80
2022-12-16T06:32:51.069Z,80.07
2022-12-16T06:35:34.534Z,88.38
2022-12-16T06:38:20.354Z,87.43
2022-12-16T06:41:14.466Z,95.82
2022-12-16T06:44:00.573Z,85.05
2022-12-16T06:46:46.339Z,92.93
2022-12-16T06:49:32.198Z,83.68
2022-12-16T06:52:19.469Z,96.65
2022-12-16T06:55:05.774Z,111.47
2022-12-16T06:57:51.356Z,100.85
2022-12-16T07:00:37.742Z,103.35
2022-12-16T07:03:23.558Z,70.57
2022-12-16T07:06:11.740Z,90.65
2022-12-16T07:08:59.204Z,97.78
2022-12-16T07:11:45.602Z,89.68
2022-12-16T07:14:31.268Z,99.28
2022-12-16T07:17:19.312Z,103.93
2022-12-16T07:20:05.095Z,96.50
2022-12-16T07:23:01.028Z,86.82
2022-12-16T07:25:51.739Z,82.15
2022-12-16T07:28:37.867Z,84.70
2022-12-16T07:31:23.761Z,83.40
2022-12-16T07:34:10.095Z,82.90
2022-12-16T07:36:55.752Z,93.50
2022-12-16T07:39:41.975Z,98.68
2022-12-16T07:42:29.371Z,96.07
2022-12-16T07:45:15.458Z,104.13
2022-12-16T07:48:05.890Z,89.55
2022-12-16T07:50:52.098Z,94.70
2022-12-16T07:53:39.480Z,96.70
2022-12-16T07:56:26.178Z,80.70
2022-12-16T07:59:13.512Z,75.78
2022-12-16T08:01:59.858Z,79.93
2022-12-16T08:04:45.666Z,75.90
2022-12-16T08:07:32.019Z,66.90
2022-12-16T08:10:17.868Z,80.38
2022-12-16T08:13:04.144Z,79.05
2022-12-16T08:15:51.484Z,79.22
2022-12-16T08:18:37.412Z,67.00
2022-12-16T08:21:23.058Z,81.28
2022-12-16T08:24:09.304Z,79.50
2022-12-16T08:26:55.062Z,71.43
2022-12-16T08:29:45.387Z,83.43
2022-12-16T08:32:33.580Z,80.47
2022-12-16T08:35:19.986Z,76.17
2022-12-16T08:38:12.067Z,78.38
2022-12-16T08:41:01.233Z,81.75
2022-12-16T08:43:49.343Z,74.63
2022-12-16T08:46:35.578Z,89.85
2022-12-16T08:49:23.031Z,69.38
2022-12-16T08:52:10.458Z,76.28
2022-12-16T08:54:56.175Z,91.65
2022-12-16T08:57:47.879Z,78.93
2022-12-16T09:00:36.419Z,81.00
2022-12-16T09:03:22.479Z,79.13
2022-12-16T09:06:11.969Z,87.55
2022-12-16T09:08:57.952Z,86.95
2022-12-16T09:11:43.715Z,88.75
2022-12-16T09:14:29.717Z,90.10
2022-12-16T09:17:15.703Z,81.97
2022-12-16T09:20:01.857Z,90.72
2022-12-16T09:22:49.129Z,98.45
2022-12-16T09:25:35.171Z,93.00
2022-12-16T09:28:21.113Z,97.18
2022-12-16T09:31:07.218Z,91.63
2022-12-16T09:33:53.442Z,82.70
2022-12-16T09:36:39.619Z,82.40
2022-12-16T09:39:27.132Z,107.07
2022-12-16T09:42:22.282Z,97.22
2022-12-16T09:45:16.779Z,88.70
2022-12-16T09:48:09.871Z,91.47
2022-12-16T09:50:58.598Z,91.22
2022-12-16T09:53:46.874Z,97.22
2022-12-16T09:56:38.014Z,94.32
2022-12-16T09:59:29.888Z,101.30
2022-12-16T10:02:16.380Z,103.18
2022-12-16T10:05:05.402Z,99.20
2022-12-16T10:07:57.239Z,97.75
2022-12-16T10:10:48.864Z,105.05
2022-12-16T10:13:46.449Z,91.72
2022-12-16T10:16:42.098Z,93.00
2022-12-16T10:19:42.614Z,93.13
2022-12-16T10:22:36.019Z,104.55
2022-12-16T10:25:30.921Z,97.53
2022-12-16T10:28:25.206Z,109.60
2022-12-16T10:31:12.264Z,83.95
2022-12-16T10:34:08.144Z,96.07
2022-12-16T10:36:56.324Z,95.03
2022-12-16T10:39:48.057Z,106.60
2022-12-16T10:42:41.887Z,83.80
2022-12-16T10:45:52.764Z,104.70
2022-12-16T10:48:54.980Z,108.90
2022-12-16T10:51:46.374Z,103.70
2022-12-16T10:54:51.700Z,110.95
2022-12-16T10:57:51.211Z,109.25
2022-12-16T11:00:40.050Z,109.20
2022-12-16T11:03:37.921Z,80.15
2022-12-16T11:06:26.523Z,92.55
2022-12-16T11:09:12.765Z,101.90
2022-12-16T11:11:58.267Z,106.93
2022-12-16T11:15:05.775Z,101.68
2022-12-16T11:17:51.626Z,95.13
2022-12-16T11:20:39.585Z,97.60
2022-12-16T11:23:44.305Z,110.28
2022-12-16T11:26:37.211Z,117.32
2022-12-16T11:29:29.521Z,118.50
2022-12-16T11:32:31.729Z,192.55
2022-12-16T11:35:19.101Z,153.82
2022-12-16T11:38:07.047Z,149.77
2022-12-16T11:40:55.283Z,232.63
2022-12-16T11:43:44.107Z,277.15
2022-12-16T11:46:33.311Z,135.18
2022-12-16T11:49:25.312Z,136.35
2022-12-16T11:52:35.985Z,132.68
2022-12-16T11:56:03.271Z,117.18
2022-12-16T11:58:50.003Z,122.50
2022-12-16T12:01:45.481Z,123.63
2022-12-16T12:04:32.857Z,136.02
2022-12-16T12:07:45.406Z,143.63
2022-12-16T12:11:03.280Z,124.82
2022-12-16T12:14:08.857Z,120.30
2022-12-16T12:17:06.890Z,120.05
2022-12-16T12:20:04.230Z,119.05
2022-12-16T12:22:54.657Z,102.45
2022-12-16T12:25:47.018Z,119.38
2022-12-16T12:28:42.967Z,117.80
2022-12-16T12:31:44.793Z,132.02
2022-12-16T12:34:39.255Z,134.63
2022-12-16T12:37:31.893Z,142.40
2022-12-16T12:40:27.653Z,126.68
2022-12-16T12:43:15.457Z,114.30
2022-12-16T12:46:14.278Z,100.22
2022-12-16T12:49:22.677Z,86.93
2022-12-16T12:52:16.626Z,106.07
2022-12-16T12:55:12.300Z,106.70
2022-12-16T12:58:00.885Z,101.25
2022-12-16T13:00:54.392Z,98.47
2022-12-16T13:03:52.471Z,111.60
2022-12-16T13:06:47.010Z,110.18
2022-12-16T13:09:44.287Z,94.35
2022-12-16T13:12:44.072Z,123.57
2022-12-16T13:15:36.859Z,117.80
2022-12-16T13:18:49.939Z,108.75
2022-12-16T13:22:08.037Z,108.15
2022-12-16T13:25:01.546Z,111.13
2022-12-16T13:27:50.006Z,113.78
2022-12-16T13:30:41.728Z,120.45
2022-12-16T13:33:43.043Z,108.93
2022-12-16T13:36:31.328Z,113.28
2022-12-16T13:39:30.629Z,132.18
2022-12-16T13:42:19.529Z,116.50
2022-12-16T13:45:18.096Z,117.68
2022-12-16T13:48:24.445Z,111.00
2022-12-16T13:51:18.517Z,122.63
2022-12-16T13:54:10.181Z,120.53
2022-12-16T13:57:01.088Z,122.75
2022-12-16T13:59:50.226Z,120.63
2022-12-16T14:02:45.875Z,142.02
2022-12-16T14:05:41.884Z,126.18
2022-12-16T14:08:34.625Z,127.18
2022-12-16T14:11:23.290Z,129.43
2022-12-16T14:14:18.205Z,117.07
2022-12-16T14:17:18.944Z,123.15
2022-12-16T14:20:15.567Z,119.05
2022-12-16T14:23:32.507Z,132.80
2022-12-16T14:26:21.965Z,85.07
2022-12-16T14:29:07.801Z,125.37
2022-12-16T14:31:56.797Z,121.75
2022-12-16T14:34:46.178Z,130.57
2022-12-16T14:37:32.440Z,117.30
2022-12-16T14:40:32.615Z,129.13
2022-12-16T14:43:18.356Z,113.40
2022-12-16T14:46:08.580Z,116.75
2022-12-16T14:48:57.582Z,110.60
2022-12-16T14:51:45.303Z,106.35
2022-12-16T14:54:40.210Z,108.95
2022-12-16T14:57:33.297Z,107.40
2022-12-16T15:00:20.327Z,115.28
2022-12-16T15:03:11.051Z,111.45
2022-12-16T15:06:00.093Z,118.85
2022-12-16T15:08:50.723Z,121.38
2022-12-16T15:11:39.308Z,110.72
2022-12-16T15:14:31.627Z,105.13
2022-12-16T15:17:18.762Z,107.78
2022-12-16T15:20:12.925Z,119.13
2022-12-16T15:23:07.501Z,123.20
2022-12-16T15:25:54.741Z,117.65
2022-12-16T15:28:44.977Z,111.72
2022-12-16T15:31:43.545Z,113.37
2022-12-16T15:34:47.920Z,120.63
2022-12-16T15:37:40.533Z,113.43
2022-12-16T15:40:52.087Z,104.18
2022-12-16T15:43:45.838Z,118.65
2022-12-16T15:46:40.294Z,111.43
2022-12-16T15:49:37.841Z,116.57
2022-12-16T15:52:42.174Z,148.77
2022-12-16T15:55:48.924Z,114.80
2022-12-16T15:58:42.235Z,115.25
2022-12-16T16:01:32.750Z,117.63
2022-12-16T16:04:18.663Z,129.27
2022-12-16T16:07:07.578Z,126.95
2022-12-16T16:09:54.781Z,125.63
2022-12-16T16:12:45.270Z,127.45
2022-12-16T16:15:33.484Z,119.03
2022-12-16T16:18:22.315Z,131.93
2022-12-16T16:21:08.976Z,121.20
2022-12-16T16:23:55.041Z,119.07
2022-12-16T16:26:45.366Z,141.73
2022-12-16T16:29:33.885Z,140.77
2022-12-16T16:32:20.408Z,142.18
2022-12-16T16:35:10.764Z,136.40
2022-12-16T16:37:57.291Z,132.65
2022-12-16T16:40:50.337Z,159.90
2022-12-16T16:43:36.841Z,141.77
2022-12-16T16:46:40.650Z,128.65
2022-12-16T16:49:28.192Z,131.00
2022-12-16T16:52:14.709Z,138.05
2022-12-16T16:55:00.747Z,153.48
2022-12-16T16:57:51.016Z,160.80
2022-12-16T17:00:37.324Z,153.55
2022-12-16T17:03:25.133Z,124.07
2022-12-16T17:06:11.200Z,134.98
2022-12-16T17:08:57.565Z,133.23
2022-12-16T17:11:45.078Z,117.95
2022-12-16T17:14:32.443Z,124.32
2022-12-16T17:17:18.425Z,122.05
2022-12-16T17:20:07.441Z,128.80
2022-12-16T17:22:53.377Z,127.30
2022-12-16T17:25:42.099Z,126.57
2022-12-16T17:28:29.294Z,131.90
2022-12-16T17:31:15.871Z,134.38
2022-12-16T17:34:03.736Z,110.18
2022-12-16T17:36:51.368Z,129.13
2022-12-16T17:39:37.642Z,137.00
2022-12-16T17:42:24.654Z,142.30
2022-12-16T17:45:10.369Z,149.52
2022-12-16T17:47:56.543Z,153.25
2022-12-16T17:50:42.400Z,163.02
2022-12-16T17:53:30.036Z,151.65
2022-12-16T17:56:21.823Z,141.98
2022-12-16T17:59:10.954Z,142.10
2022-12-16T18:01:56.958Z,128.07
2022-12-16T18:04:43.128Z,124.72
2022-12-16T18:07:44.279Z,114.22
2022-12-16T18:10:31.422Z,128.35
2022-12-16T18:13:17.138Z,119.30
2022-12-16T18:16:09.660Z,122.80
2022-12-16T18:18:55.459Z,118.45
2022-12-16T18:21:41.544Z,114.03
2022-12-16T18:24:27.921Z,119.65
2022-12-16T18:27:15.180Z,116.65
2022-12-16T18:30:01.181Z,122.10
2022-12-16T18:32:46.962Z,114.07
2022-12-16T18:35:32.695Z,133.75
2022-12-16T18:38:18.695Z,122.75
2022-12-16T18:41:04.550Z,128.32
2022-12-16T18:43:51.695Z,139.57
2022-12-16T18:46:37.580Z,150.25
2022-12-16T18:49:23.791Z,148.70
2022-12-16T18:52:09.486Z,160.27
2022-12-16T18:54:55.610Z,122.47
2022-12-16T18:57:41.242Z,137.73
2022-12-16T19:00:29.722Z,138.40
2022-12-16T19:03:15.653Z,125.22
2022-12-16T19:06:02.067Z,116.00
2022-12-16T19:08:48.127Z,121.10
2022-12-16T19:11:35.909Z,108.18
2022-12-16T19:14:23.940Z,111.10
2022-12-16T19:17:11.791Z,114.55
2022-12-16T19:19:57.362Z,101.32
2022-12-16T19:22:43.751Z,110.82
2022-12-16T19:25:29.659Z,103.13
2022-12-16T19:28:16.904Z,115.68
2022-12-16T19:31:02.786Z,116.50
2022-12-16T19:33:49.962Z,109.65
2022-12-16T19:36:36.217Z,129.52
2022-12-16T19:39:23.456Z,112.20
2022-12-16T19:42:09.142Z,146.45
2022-12-16T19:44:56.053Z,147.85
2022-12-16T19:47:42.388Z,246.05
2022-12-16T19:50:44.642Z,219.88
2022-12-16T19:53:30.627Z,222.35
2022-12-16T19:56:18.003Z,106.93
2022-12-16T19:59:04.182Z,93.38
2022-12-16T20:01:50.492Z,125.70
2022-12-16T20:04:37.780Z,136.93
2022-12-16T20:07:24.993Z,105.45
2022-12-16T20:10:11.972Z,86.63
2022-12-16T20:12:58.049Z,59.42
2022-12-16T20:15:43.696Z,68.22
2022-12-16T20:18:44.472Z,65.03
2022-12-16T20:21:30.975Z,57.78
2022-12-16T20:24:18.491Z,63.55
2022-12-16T20:27:04.668Z,59.05
2022-12-16T20:29:51.587Z,57.25
2022-12-16T20:32:37.162Z,61.45
2022-12-16T20:35:23.310Z,64.97
2022-12-16T20:38:08.907Z,78.25
2022-12-16T20:40:56.381Z,61.80
2022-12-16T20:43:42.718Z,61.67
2022-12-16T20:46:28.709Z,84.40
2022-12-16T20:49:14.806Z,66.22
2022-12-16T20:52:01.141Z,57.85
2022-12-16T20:54:48.923Z,76.07
2022-12-16T20:57:38.958Z,60.45
2022-12-16T21:00:25.894Z,61.45
2022-12-16T21:03:15.204Z,62.38
2022-12-16T21:06:00.936Z,61.67
2022-12-16T21:08:48.648Z,73.85
2022-12-16T21:11:34.846Z,63.08
2022-12-16T21:14:22.087Z,66.15
2022-12-16T21:17:08.787Z,75.45
2022-12-16T21:19:56.155Z,69.70
2022-12-16T21:22:41.790Z,170.68
2022-12-16T21:25:28.223Z,147.35
2022-12-16T21:28:15.929Z,82.40
2022-12-16T21:31:04.653Z,77.45
2022-12-16T21:33:50.698Z,68.30
2022-12-16T21:36:37.996Z,66.10
2022-12-16T21:39:39.342Z,59.75
2022-12-16T21:42:33.142Z,62.97
2022-12-16T21:45:17.266Z,65.72
2022-12-16T21:48:04.943Z,65.70
2022-12-16T21:50:51.798Z,64.15
2022-12-16T21:53:38.976Z,61.28
2022-12-16T21:56:25.087Z,60.00
2022-12-16T21:59:11.220Z,61.85
2022-12-16T22:01:57.036Z,66.38
2022-12-16T22:04:44.816Z,68.00
2022-12-16T22:07:30.784Z,64.20
2022-12-16T22:10:16.909Z,71.63
2022-12-16T22:13:03.295Z,65.82
2022-12-16T22:15:49.117Z,63.83
2022-12-16T22:18:35.779Z,68.25
2022-12-16T22:21:24.593Z,60.17
2022-12-16T22:24:10.257Z,64.57
2022-12-16T22:26:56.631Z,55.75
2022-12-16T22:29:42.454Z,63.63
2022-12-16T22:32:28.321Z,58.70
2022-12-16T22:35:14.134Z,53.05
2022-12-16T22:38:01.592Z,54.63
2022-12-16T22:40:47.389Z,64.45
2022-12-16T22:43:47.975Z,53.35
2022-12-16T22:46:34.437Z,48.65
2022-12-16T22:49:20.534Z,45.78
2022-12-16T22:52:06.407Z,50.17
2022-12-16T22:54:53.617Z,46.42
2022-12-16T22:57:39.381Z,49.40
2022-12-16T23:00:27.128Z,44.50
2022-12-16T23:03:15.899Z,46.28
2022-12-16T23:05:58.825Z,43.67
2022-12-16T23:08:44.511Z,51.33
2022-12-16T23:11:38.097Z,43.97
2022-12-16T23:14:23.671Z,43.70
2022-12-16T23:17:10.271Z,44.10
2022-12-16T23:19:56.575Z,46.08
2022-12-16T23:22:43.124Z,60.13
2022-12-16T23:25:28.717Z,59.47
2022-12-16T23:28:16.017Z,62.22
2022-12-16T23:31:02.470Z,56.00
2022-12-16T23:33:48.608Z,62.50
2022-12-16T23:36:48.949Z,66.63
2022-12-16T23:39:37.304Z,62.42
2022-12-16T23:42:23.149Z,69.43
2022-12-16T23:45:10.791Z,75.93
2022-12-16T23:47:56.678Z,56.88
2022-12-16T23:50:42.804Z,66.25
2022-12-16T23:53:29.356Z,66.95
2022-12-16T23:56:17.219Z,70.68
2022-12-16T23:59:05.159Z,67.40
